createdAt,value
2023-09-06T00:02:00.226Z,70.31
2023-09-06T00:04:27.055Z,70.03
2023-09-06T00:06:53.839Z,69.33
2023-09-06T00:09:20.560Z,68.50
2023-09-06T00:11:47.419Z,68.79
2023-09-06T00:14:14.269Z,68.58
2023-09-06T00:16:40.846Z,67.80
2023-09-06T00:19:07.556Z,67.13
2023-09-06T00:21:37.811Z,66.33
2023-09-06T00:24:05.142Z,66.43
2023-09-06T00:26:31.812Z,66.76
2023-09-06T00:28:59.095Z,67.69
2023-09-06T00:31:25.937Z,67.47
2023-09-06T00:33:53.107Z,67.61
2023-09-06T00:36:19.737Z,68.91
2023-09-06T00:38:46.287Z,68.75
2023-09-06T00:41:12.847Z,68.13
2023-09-06T00:43:39.535Z,67.43
2023-09-06T00:46:08.675Z,67.43
2023-09-06T00:48:36.477Z,67.15
2023-09-06T00:51:04.987Z,66.59
2023-09-06T00:53:32.832Z,66.60
2023-09-06T00:56:00.453Z,66.48
2023-09-06T00:58:28.499Z,66.36
2023-09-06T01:00:55.352Z,66.48
2023-09-06T01:03:22.119Z,67.57
2023-09-06T01:05:52.641Z,67.12
2023-09-06T01:08:26.718Z,66.68
2023-09-06T01:10:54.343Z,67.46
2023-09-06T01:13:21.706Z,67.40
2023-09-06T01:15:50.174Z,67.88
2023-09-06T01:18:17.412Z,67.47
2023-09-06T01:20:53.923Z,68.01
2023-09-06T01:23:34.659Z,68.24
2023-09-06T01:26:02.258Z,69.60
2023-09-06T01:28:29.727Z,69.96
2023-09-06T01:30:56.698Z,69.91
2023-09-06T01:33:24.015Z,71.23
2023-09-06T01:35:51.460Z,71.07
2023-09-06T01:38:18.412Z,71.41
2023-09-06T01:40:45.568Z,71.96
2023-09-06T01:43:12.832Z,72.35
2023-09-06T01:45:47.011Z,71.38
2023-09-06T01:48:13.842Z,70.48
2023-09-06T01:50:40.527Z,70.91
2023-09-06T01:53:07.195Z,71.30
2023-09-06T01:55:33.824Z,71.63
2023-09-06T01:58:00.497Z,70.99
2023-09-06T02:00:32.370Z,71.83
2023-09-06T02:03:00.716Z,71.42
2023-09-06T02:05:27.711Z,69.83
2023-09-06T02:07:54.305Z,69.02
2023-09-06T02:10:22.499Z,69.92
2023-09-06T02:12:49.111Z,70.78
2023-09-06T02:15:16.044Z,69.83
2023-09-06T02:17:43.872Z,69.76
2023-09-06T02:20:18.056Z,70.54
2023-09-06T02:22:48.272Z,71.68
2023-09-06T02:25:16.543Z,72.02
2023-09-06T02:27:43.269Z,71.07
2023-09-06T02:30:10.322Z,70.46
2023-09-06T02:32:37.140Z,70.02
2023-09-06T02:35:04.373Z,69.16
2023-09-06T02:37:31.151Z,68.48
2023-09-06T02:39:57.798Z,69.87
2023-09-06T02:42:24.437Z,69.52
2023-09-06T02:44:52.058Z,70.14
2023-09-06T02:47:18.833Z,70.65
2023-09-06T02:49:46.941Z,70.64
2023-09-06T02:52:24.078Z,70.70
2023-09-06T02:54:50.731Z,69.92
2023-09-06T02:57:18.487Z,69.84
2023-09-06T02:59:45.130Z,71.33
2023-09-06T03:02:13.824Z,71.75
2023-09-06T03:04:42.049Z,71.92
2023-09-06T03:07:10.069Z,72.47
2023-09-06T03:09:40.041Z,72.80
2023-09-06T03:12:15.458Z,73.10
2023-09-06T03:14:45.723Z,73.64
2023-09-06T03:17:13.100Z,73.04
2023-09-06T03:19:41.904Z,72.50
2023-09-06T03:22:10.685Z,71.38
2023-09-06T03:24:41.541Z,71.13
2023-09-06T03:27:09.061Z,70.86
2023-09-06T03:29:39.781Z,72.87
2023-09-06T03:32:10.084Z,73.54
2023-09-06T03:34:41.868Z,73.56
2023-09-06T03:37:11.653Z,73.01
2023-09-06T03:39:42.367Z,74.41
2023-09-06T03:42:09.735Z,72.93
2023-09-06T03:44:39.751Z,73.25
2023-09-06T03:47:14.469Z,72.15
2023-09-06T03:49:41.975Z,71.60
2023-09-06T03:52:08.814Z,71.85
2023-09-06T03:54:35.795Z,72.52
2023-09-06T03:57:03.438Z,72.47
2023-09-06T03:59:36.692Z,73.54
2023-09-06T04:02:08.670Z,72.89
2023-09-06T04:04:35.892Z,71.68
2023-09-06T04:07:04.052Z,71.90
2023-09-06T04:09:38.328Z,72.34
2023-09-06T04:12:08.720Z,72.51
2023-09-06T04:14:36.880Z,71.36
2023-09-06T04:17:08.492Z,71.34
2023-09-06T04:19:37.140Z,71.58
2023-09-06T04:22:04.045Z,71.23
2023-09-06T04:24:36.319Z,72.06
2023-09-06T04:27:06.229Z,71.74
2023-09-06T04:29:33.523Z,72.33
2023-09-06T04:32:01.972Z,72.47
2023-09-06T04:34:28.692Z,73.01
2023-09-06T04:36:55.964Z,72.73
2023-09-06T04:39:24.207Z,72.65
2023-09-06T04:41:50.819Z,73.39
2023-09-06T04:44:19.334Z,73.68
2023-09-06T04:46:47.715Z,73.62
2023-09-06T04:49:14.681Z,73.98
2023-09-06T04:51:41.281Z,74.00
2023-09-06T04:54:10.770Z,74.64
2023-09-06T04:56:39.598Z,75.53
2023-09-06T04:59:06.932Z,75.25
2023-09-06T05:01:34.328Z,75.05
2023-09-06T05:04:01.747Z,74.94
2023-09-06T05:06:29.916Z,75.06
2023-09-06T05:08:56.594Z,74.93
2023-09-06T05:11:24.893Z,73.51
2023-09-06T05:13:53.379Z,72.73
2023-09-06T05:16:21.801Z,73.35
2023-09-06T05:18:50.332Z,73.92
2023-09-06T05:21:20.524Z,73.87
2023-09-06T05:23:47.557Z,73.82
2023-09-06T05:26:14.296Z,74.08
2023-09-06T05:28:45.126Z,73.24
2023-09-06T05:31:13.373Z,72.48
2023-09-06T05:33:44.132Z,71.93
2023-09-06T05:36:12.705Z,71.68
2023-09-06T05:38:39.931Z,71.71
2023-09-06T05:41:08.373Z,71.46
2023-09-06T05:43:39.639Z,71.11
2023-09-06T05:46:17.505Z,70.77
2023-09-06T05:48:52.728Z,70.69
2023-09-06T05:51:19.637Z,71.11
2023-09-06T05:53:48.534Z,71.81
2023-09-06T05:56:15.263Z,71.05
2023-09-06T05:58:42.026Z,70.00
2023-09-06T06:01:10.366Z,69.06
2023-09-06T06:03:39.328Z,67.52
2023-09-06T06:06:11.647Z,66.46
2023-09-06T06:08:38.845Z,65.70
2023-09-06T06:11:06.203Z,64.43
2023-09-06T06:13:33.394Z,63.82
2023-09-06T06:16:00.170Z,63.08
2023-09-06T06:18:27.796Z,64.31
2023-09-06T06:20:55.866Z,65.29
2023-09-06T06:23:22.665Z,65.54
2023-09-06T06:25:49.443Z,66.94
2023-09-06T06:28:16.872Z,64.93
2023-09-06T06:30:43.928Z,64.95
2023-09-06T06:33:10.860Z,64.28
2023-09-06T06:35:37.801Z,65.27
2023-09-06T06:38:05.132Z,64.28
2023-09-06T06:40:36.133Z,64.07
2023-09-06T06:43:02.873Z,62.00
2023-09-06T06:45:29.876Z,61.43
2023-09-06T06:47:56.803Z,60.49
2023-09-06T06:50:23.727Z,60.42
2023-09-06T06:52:50.662Z,59.63
2023-09-06T06:55:17.518Z,58.41
2023-09-06T06:57:45.677Z,56.90
2023-09-06T07:00:12.978Z,54.57
2023-09-06T07:02:39.894Z,51.77
2023-09-06T07:05:06.880Z,49.88
2023-09-06T07:07:33.682Z,47.59
2023-09-06T07:10:00.404Z,43.73
2023-09-06T07:12:27.164Z,40.39
2023-09-06T07:14:53.972Z,38.44
2023-09-06T07:17:20.745Z,36.56
2023-09-06T07:19:47.592Z,34.84
2023-09-06T07:22:14.408Z,34.98
2023-09-06T07:24:41.032Z,33.90
2023-09-06T07:27:07.790Z,33.16
2023-09-06T07:29:34.502Z,31.43
2023-09-06T07:32:01.267Z,32.77
2023-09-06T07:34:28.114Z,32.09
2023-09-06T07:36:54.887Z,29.75
2023-09-06T07:39:22.328Z,28.63
2023-09-06T07:41:51.753Z,29.24
2023-09-06T07:44:19.572Z,28.92
2023-09-06T07:46:49.794Z,28.98
2023-09-06T07:49:22.760Z,28.35
2023-09-06T07:51:49.582Z,27.19
2023-09-06T07:54:16.220Z,26.32
2023-09-06T07:56:44.085Z,27.41
2023-09-06T07:59:13.674Z,26.76
2023-09-06T08:01:40.927Z,28.05
2023-09-06T08:04:10.575Z,29.01
2023-09-06T08:06:37.636Z,29.51
2023-09-06T08:09:04.601Z,29.27
2023-09-06T08:11:31.380Z,27.67
2023-09-06T08:13:58.358Z,29.54
2023-09-06T08:16:25.079Z,28.42
2023-09-06T08:18:51.879Z,28.42
2023-09-06T08:21:18.872Z,31.32
2023-09-06T08:23:45.672Z,31.66
2023-09-06T08:26:12.889Z,30.68
2023-09-06T08:28:39.805Z,30.06
2023-09-06T08:31:07.434Z,29.72
2023-09-06T08:33:35.134Z,31.09
2023-09-06T08:36:02.305Z,30.85
2023-09-06T08:38:29.718Z,31.16
2023-09-06T08:40:56.936Z,30.60
2023-09-06T08:43:24.504Z,30.33
2023-09-06T08:45:55.434Z,29.63
2023-09-06T08:48:24.418Z,29.61
2023-09-06T08:50:53.682Z,29.99
2023-09-06T08:53:23.025Z,29.00
2023-09-06T08:55:50.248Z,29.39
2023-09-06T08:58:17.065Z,28.03
2023-09-06T09:00:44.044Z,29.62
2023-09-06T09:03:10.972Z,30.25
2023-09-06T09:05:37.829Z,30.17
2023-09-06T09:08:05.637Z,30.85
2023-09-06T09:10:34.276Z,29.79
2023-09-06T09:13:02.107Z,29.36
2023-09-06T09:15:33.534Z,28.28
2023-09-06T09:18:10.426Z,28.65
2023-09-06T09:20:39.820Z,29.56
2023-09-06T09:23:12.090Z,29.21
2023-09-06T09:25:50.387Z,30.78
2023-09-06T09:28:18.018Z,29.60
2023-09-06T09:30:47.519Z,29.19
2023-09-06T09:33:14.537Z,28.10
2023-09-06T09:35:41.991Z,28.93
2023-09-06T09:38:14.077Z,28.01
2023-09-06T09:43:10.582Z,29.63
2023-09-06T09:45:44.416Z,28.42
2023-09-06T09:48:11.681Z,30.23
2023-09-06T09:50:42.301Z,30.00
2023-09-06T09:53:20.450Z,28.92
2023-09-06T09:55:49.328Z,28.56
2023-09-06T09:58:17.061Z,28.83
2023-09-06T10:00:44.051Z,28.65
2023-09-06T10:03:11.793Z,31.61
2023-09-06T10:05:39.431Z,31.30
2023-09-06T10:08:11.160Z,30.18
2023-09-06T10:10:41.895Z,29.46
2023-09-06T10:13:09.684Z,28.83
2023-09-06T10:15:37.785Z,29.29
2023-09-06T10:18:06.318Z,29.72
2023-09-06T10:20:35.970Z,28.78
2023-09-06T10:23:02.781Z,29.20
2023-09-06T10:25:31.044Z,28.65
2023-09-06T10:27:58.456Z,29.19
2023-09-06T10:30:43.688Z,32.40
2023-09-06T10:33:29.768Z,29.75
2023-09-06T10:35:59.910Z,29.34
2023-09-06T10:38:28.688Z,29.15
2023-09-06T10:40:55.709Z,30.64
2023-09-06T10:43:29.425Z,30.05
2023-09-06T10:46:27.996Z,32.80
2023-09-06T10:49:13.609Z,31.03
2023-09-06T10:51:56.059Z,31.04
2023-09-06T10:54:35.499Z,29.90
2023-09-06T10:57:06.433Z,29.83
2023-09-06T10:59:43.141Z,29.81
2023-09-06T11:02:28.796Z,30.66
2023-09-06T11:05:17.229Z,30.34
2023-09-06T11:07:50.658Z,30.99
2023-09-06T11:10:24.618Z,31.18
2023-09-06T11:12:55.536Z,31.47
2023-09-06T11:15:23.729Z,32.10
2023-09-06T11:17:50.681Z,32.27
2023-09-06T11:20:18.179Z,30.86
2023-09-06T11:22:56.194Z,31.40
2023-09-06T11:25:24.167Z,32.99
2023-09-06T11:27:52.009Z,31.67
2023-09-06T11:30:25.260Z,31.63
2023-09-06T11:32:53.391Z,31.51
2023-09-06T11:35:23.596Z,31.69
2023-09-06T11:37:52.413Z,33.32
2023-09-06T11:40:21.894Z,33.63
2023-09-06T11:42:50.668Z,32.53
2023-09-06T11:45:20.850Z,31.80
2023-09-06T11:47:48.863Z,32.13
2023-09-06T11:50:20.122Z,30.94
2023-09-06T11:52:57.212Z,31.98
2023-09-06T11:55:26.039Z,32.17
2023-09-06T11:57:58.510Z,32.47
2023-09-06T12:00:46.361Z,32.32
2023-09-06T12:03:14.918Z,32.33
2023-09-06T12:05:49.873Z,32.70
2023-09-06T12:08:22.980Z,31.79
2023-09-06T12:10:54.856Z,30.84
2023-09-06T12:13:32.459Z,32.26
2023-09-06T12:16:00.148Z,31.54
2023-09-06T12:18:29.514Z,30.42
2023-09-06T12:20:57.832Z,30.31
2023-09-06T12:23:30.800Z,30.13
2023-09-06T12:25:58.664Z,29.30
2023-09-06T12:28:25.418Z,29.21
2023-09-06T12:30:56.122Z,29.97
2023-09-06T12:33:23.547Z,30.51
2023-09-06T12:35:59.460Z,30.30
2023-09-06T12:38:30.655Z,29.55
2023-09-06T12:40:58.917Z,28.97
2023-09-06T12:43:27.116Z,30.30
2023-09-06T12:45:55.153Z,30.27
2023-09-06T12:48:22.957Z,29.78
2023-09-06T12:50:55.596Z,29.74
2023-09-06T12:53:24.488Z,30.19
2023-09-06T12:55:51.174Z,30.74
2023-09-06T12:58:18.824Z,30.24
2023-09-06T13:00:46.066Z,30.29
2023-09-06T13:03:13.653Z,29.42
2023-09-06T13:05:44.618Z,29.32
2023-09-06T13:08:12.067Z,28.00
2023-09-06T13:10:39.823Z,27.30
2023-09-06T13:13:06.644Z,27.84
2023-09-06T13:15:33.287Z,28.54
2023-09-06T13:18:00.124Z,28.28
2023-09-06T13:20:26.906Z,29.97
2023-09-06T13:22:53.573Z,28.82
2023-09-06T13:25:20.999Z,29.17
2023-09-06T13:27:48.411Z,28.90
2023-09-06T13:30:15.264Z,28.32
2023-09-06T13:32:41.905Z,28.53
2023-09-06T13:35:08.946Z,29.38
2023-09-06T13:37:35.662Z,29.48
2023-09-06T13:40:02.432Z,28.84
2023-09-06T13:42:29.544Z,29.05
2023-09-06T13:44:56.514Z,29.40
2023-09-06T13:47:23.935Z,28.57
2023-09-06T13:49:51.856Z,28.19
2023-09-06T13:52:19.146Z,29.94
2023-09-06T13:54:46.931Z,29.71
2023-09-06T13:57:13.757Z,30.00
2023-09-06T13:59:42.079Z,31.04
2023-09-06T14:02:09.691Z,30.50
2023-09-06T14:04:36.948Z,29.15
2023-09-06T14:07:03.823Z,30.15
2023-09-06T14:09:30.369Z,30.86
2023-09-06T14:11:57.070Z,30.56
2023-09-06T14:14:24.706Z,31.71
2023-09-06T14:16:52.053Z,32.38
2023-09-06T14:19:18.774Z,31.84
2023-09-06T14:21:47.246Z,31.37
2023-09-06T14:24:15.596Z,30.83
2023-09-06T14:26:44.266Z,31.38
2023-09-06T14:29:14.962Z,31.47
2023-09-06T14:31:41.768Z,31.41
2023-09-06T14:34:08.705Z,31.40
2023-09-06T14:36:35.525Z,32.36
2023-09-06T14:39:03.540Z,31.65
2023-09-06T14:41:30.999Z,33.26
2023-09-06T14:43:58.485Z,33.45
2023-09-06T14:46:25.575Z,32.73
2023-09-06T14:48:53.353Z,32.67
2023-09-06T14:51:20.291Z,33.10
2023-09-06T14:53:47.282Z,33.05
2023-09-06T14:56:16.208Z,32.34
2023-09-06T14:58:43.575Z,33.33
2023-09-06T15:01:10.460Z,33.16
2023-09-06T15:03:39.282Z,32.88
2023-09-06T15:06:08.525Z,32.83
2023-09-06T15:08:35.623Z,32.17
2023-09-06T15:11:02.740Z,32.56
2023-09-06T15:13:29.389Z,32.85
2023-09-06T15:15:56.460Z,32.87
2023-09-06T15:18:23.350Z,32.50
2023-09-06T15:20:50.719Z,32.36
2023-09-06T15:23:17.583Z,32.35
2023-09-06T15:25:45.790Z,32.30
2023-09-06T15:28:13.252Z,33.35
2023-09-06T15:30:40.181Z,33.22
2023-09-06T15:33:07.247Z,34.41
2023-09-06T15:35:33.981Z,33.73
2023-09-06T15:38:00.697Z,33.54
2023-09-06T15:40:27.757Z,33.68
2023-09-06T15:42:54.522Z,34.13
2023-09-06T15:45:21.600Z,34.40
2023-09-06T15:47:49.500Z,34.05
2023-09-06T15:50:17.065Z,34.43
2023-09-06T15:52:47.942Z,35.06
2023-09-06T15:55:14.823Z,35.37
2023-09-06T15:57:42.400Z,34.38
2023-09-06T16:00:25.020Z,34.13
2023-09-06T16:02:58.294Z,34.02
2023-09-06T16:05:25.098Z,35.03
2023-09-06T16:07:51.739Z,35.30
2023-09-06T16:10:18.518Z,34.52
2023-09-06T16:12:49.166Z,36.23
2023-09-06T16:15:17.438Z,34.92
2023-09-06T16:17:46.211Z,36.93
2023-09-06T16:20:13.489Z,37.21
2023-09-06T16:22:40.289Z,36.35
2023-09-06T16:25:08.951Z,35.97
2023-09-06T16:27:36.075Z,37.04
2023-09-06T16:30:06.808Z,36.45
2023-09-06T16:32:34.181Z,36.60
2023-09-06T16:35:08.425Z,37.09
2023-09-06T16:37:43.133Z,37.85
2023-09-06T16:40:11.997Z,38.63
2023-09-06T16:42:39.417Z,39.26
2023-09-06T16:45:07.510Z,39.40
2023-09-06T16:47:34.417Z,39.65
2023-09-06T16:50:02.026Z,39.45
2023-09-06T16:52:28.717Z,39.62
2023-09-06T16:54:56.887Z,37.01
2023-09-06T16:57:23.784Z,38.01
2023-09-06T16:59:50.488Z,37.80
2023-09-06T17:02:17.261Z,38.00
2023-09-06T17:04:44.028Z,37.41
2023-09-06T17:07:10.628Z,38.46
2023-09-06T17:09:37.719Z,38.43
2023-09-06T17:12:55.302Z,39.94
2023-09-06T17:15:22.500Z,41.11
2023-09-06T17:17:51.007Z,41.95
2023-09-06T17:20:19.338Z,41.95
2023-09-06T17:22:46.467Z,41.90
2023-09-06T17:25:13.493Z,42.21
2023-09-06T17:27:42.922Z,42.11
2023-09-06T17:30:11.360Z,42.12
2023-09-06T17:32:41.546Z,42.00
2023-09-06T17:35:10.125Z,41.36
2023-09-06T17:37:36.927Z,41.97
2023-09-06T17:40:14.242Z,42.10
2023-09-06T17:42:41.708Z,42.28
2023-09-06T17:45:13.470Z,42.56
2023-09-06T17:47:43.043Z,42.21
2023-09-06T17:50:10.790Z,41.21
2023-09-06T17:52:40.854Z,42.00
2023-09-06T17:55:07.892Z,43.06
2023-09-06T17:57:35.416Z,42.99
2023-09-06T18:00:02.212Z,42.66
2023-09-06T18:02:30.309Z,42.95
2023-09-06T18:04:57.892Z,43.20
2023-09-06T18:07:24.766Z,43.71
2023-09-06T18:09:52.417Z,43.88
2023-09-06T18:12:19.381Z,44.18
2023-09-06T18:14:48.983Z,43.94
2023-09-06T18:17:15.721Z,44.49
2023-09-06T18:19:42.392Z,44.34
2023-09-06T18:22:12.965Z,44.64
2023-09-06T18:24:41.434Z,44.96
2023-09-06T18:27:10.588Z,44.71
2023-09-06T18:29:38.151Z,45.56
2023-09-06T18:32:07.525Z,45.44
2023-09-06T18:34:34.478Z,46.27
2023-09-06T18:37:01.213Z,46.80
2023-09-06T18:39:28.276Z,45.67
2023-09-06T18:41:54.929Z,46.24
2023-09-06T18:44:21.672Z,46.20
2023-09-06T18:46:48.381Z,46.91
2023-09-06T18:49:15.138Z,47.10
2023-09-06T18:51:41.804Z,47.85
2023-09-06T18:54:08.422Z,47.94
2023-09-06T18:56:35.660Z,48.14
2023-09-06T18:59:02.408Z,49.21
2023-09-06T19:01:29.569Z,49.82
2023-09-06T19:03:56.247Z,50.08
2023-09-06T19:06:22.902Z,49.72
2023-09-06T19:08:49.553Z,49.50
2023-09-06T19:11:16.141Z,49.02
2023-09-06T19:13:42.768Z,50.63
2023-09-06T19:16:10.907Z,51.06
2023-09-06T19:18:39.217Z,51.28
2023-09-06T19:21:05.974Z,50.72
2023-09-06T19:23:32.734Z,50.75
2023-09-06T19:25:59.457Z,51.40
2023-09-06T19:28:26.079Z,53.51
2023-09-06T19:30:55.483Z,53.65
2023-09-06T19:33:22.235Z,54.18
2023-09-06T19:35:49.004Z,54.66
2023-09-06T19:38:19.381Z,55.10
2023-09-06T19:40:48.220Z,55.10
2023-09-06T19:43:14.839Z,55.51
2023-09-06T19:45:41.470Z,54.87
2023-09-06T19:48:08.109Z,54.74
2023-09-06T19:50:34.837Z,54.06
2023-09-06T19:53:01.481Z,54.55
2023-09-06T19:55:29.088Z,54.13
2023-09-06T19:57:55.966Z,55.18
2023-09-06T20:00:22.617Z,55.01
2023-09-06T20:02:49.394Z,55.63
2023-09-06T20:05:16.302Z,55.64
2023-09-06T20:07:42.888Z,55.49
2023-09-06T20:10:09.630Z,56.44
2023-09-06T20:12:36.280Z,57.11
2023-09-06T20:15:05.042Z,57.30
2023-09-06T20:17:32.113Z,57.19
2023-09-06T20:20:00.299Z,57.74
2023-09-06T20:22:26.990Z,58.04
2023-09-06T20:24:54.000Z,58.09
2023-09-06T20:27:20.603Z,58.08
2023-09-06T20:29:48.230Z,59.31
2023-09-06T20:32:15.178Z,60.40
2023-09-06T20:34:43.475Z,59.89
2023-09-06T20:37:11.510Z,59.65
2023-09-06T20:39:38.187Z,59.58
2023-09-06T20:42:06.541Z,60.19
2023-09-06T20:44:33.706Z,60.44
2023-09-06T20:47:01.882Z,61.43
2023-09-06T20:49:31.423Z,61.92
2023-09-06T20:51:58.048Z,61.22
2023-09-06T20:54:24.806Z,60.77
2023-09-06T20:56:51.401Z,60.88
2023-09-06T20:59:17.989Z,60.36
2023-09-06T21:01:44.902Z,60.58
2023-09-06T21:04:11.723Z,60.14
2023-09-06T21:06:38.577Z,60.31
2023-09-06T21:09:05.775Z,60.04
2023-09-06T21:11:32.990Z,59.86
2023-09-06T21:13:59.695Z,60.34
2023-09-06T21:16:26.764Z,60.50
2023-09-06T21:18:53.544Z,60.33
2023-09-06T21:21:20.280Z,60.42
2023-09-06T21:23:46.995Z,59.32
2023-09-06T21:26:13.817Z,60.16
2023-09-06T21:28:40.350Z,60.90
2023-09-06T21:31:06.976Z,61.24
2023-09-06T21:33:33.779Z,61.09
2023-09-06T21:36:00.733Z,61.21
2023-09-06T21:38:27.335Z,61.56
2023-09-06T21:40:53.978Z,61.49
2023-09-06T21:43:20.753Z,61.21
2023-09-06T21:45:47.726Z,60.73
2023-09-06T21:48:15.019Z,60.72
2023-09-06T21:50:48.353Z,60.68
2023-09-06T21:53:15.008Z,61.01
2023-09-06T21:55:41.629Z,60.23
2023-09-06T21:58:11.170Z,61.21
2023-09-06T22:00:42.015Z,61.80
2023-09-06T22:03:27.392Z,61.28
2023-09-06T22:06:12.989Z,61.50
2023-09-06T22:08:58.069Z,61.35
2023-09-06T22:11:44.553Z,62.45
2023-09-06T22:14:11.238Z,61.65
2023-09-06T22:16:38.104Z,62.09
2023-09-06T22:19:04.856Z,61.59
2023-09-06T22:21:31.738Z,62.45
2023-09-06T22:23:58.671Z,62.00
2023-09-06T22:26:25.307Z,62.46
2023-09-06T22:28:54.305Z,62.21
2023-09-06T22:31:27.795Z,62.17
2023-09-06T22:33:54.632Z,62.13
2023-09-06T22:36:21.231Z,61.92
2023-09-06T22:38:48.059Z,62.10
2023-09-06T22:41:14.668Z,62.19
2023-09-06T22:43:41.260Z,62.24
2023-09-06T22:46:08.038Z,62.10
2023-09-06T22:48:53.381Z,62.57
2023-09-06T22:51:20.810Z,63.10
2023-09-06T22:53:47.472Z,63.19
2023-09-06T22:56:14.062Z,63.68
2023-09-06T22:58:40.717Z,64.73
2023-09-06T23:01:08.447Z,65.55
2023-09-06T23:03:38.117Z,66.48
2023-09-06T23:06:11.097Z,66.78
2023-09-06T23:08:40.388Z,67.25
2023-09-06T23:11:07.589Z,68.09
2023-09-06T23:13:35.753Z,68.27
2023-09-06T23:16:02.929Z,68.71
2023-09-06T23:18:32.366Z,68.70
2023-09-06T23:21:06.105Z,68.53
2023-09-06T23:23:34.438Z,68.11
2023-09-06T23:26:05.216Z,68.25
2023-09-06T23:28:35.413Z,67.79
2023-09-06T23:31:05.562Z,66.39
2023-09-06T23:33:40.388Z,65.73
2023-09-06T23:36:10.051Z,65.58
2023-09-06T23:38:37.081Z,66.36
2023-09-06T23:41:07.249Z,68.16
2023-09-06T23:43:34.159Z,68.84
2023-09-06T23:46:04.816Z,69.19
2023-09-06T23:48:32.202Z,69.31
2023-09-06T23:50:59.129Z,69.46
2023-09-06T23:53:26.861Z,69.81
2023-09-06T23:55:55.316Z,69.21
2023-09-06T23:58:21.937Z,69.06
